Time;durP1;ratioP1;P1;durP2;ratioP2;P2;SDS_P1;SDS_P2;PMS_P1;PMS_P2;Temp;Humidity;BMP_temperature;BMP_pressure;BME280_temperature;BME280_humidity;BME280_pressure;Samples;Min_cycle;Max_cycle;Signal;HPM_P1;HPM_P2
2022/01/31 00:01:55;;;;;;;;;;;;;;;4.44;82.70703;101334.8;;;;-76
2022/01/31 00:06:56;;;;;;;;;;;;;;;4.44;83.00098;101314;;;;-76
2022/01/31 00:12:02;;;;;;;;;;;;;;;4.43;83.23926;101313;;;;-77
2022/01/31 00:16:56;;;;;;;;;;;;;;;4.43;83.56641;101293.7;;;;-76
2022/01/31 00:21:55;;;;;;;;;;;;;;;4.42;83.77148;101281.8;;;;-77
2022/01/31 00:26:58;;;;;;;;;;;;;;;4.4;83.82227;101255.9;;;;-77
2022/01/31 00:31:55;;;;;;;;;;;;;;;4.4;83.99707;101229;;;;-76
2022/01/31 00:36:55;;;;;;;;;;;;;;;4.39;84.33105;101211.1;;;;-77
2022/01/31 00:41:55;;;;;;;;;;;;;;;4.39;84.51758;101193.8;;;;-76
2022/01/31 00:46:59;;;;;;;;;;;;;;;4.4;84.84668;101177.4;;;;-77
2022/01/31 00:51:58;;;;;;;;;;;;;;;4.41;85.05566;101145.2;;;;-77
2022/01/31 00:56:56;;;;;;;;;;;;;;;4.42;85.2334;101114.4;;;;-77
2022/01/31 01:01:55;;;;;;;;;;;;;;;4.45;85.34766;101092.3;;;;-77
2022/01/31 01:06:56;;;;;;;;;;;;;;;4.48;85.53809;101064.1;;;;-77
2022/01/31 01:11:55;;;;;;;;;;;;;;;4.51;85.9248;101053.3;;;;-78
2022/01/31 01:16:56;;;;;;;;;;;;;;;4.56;86.26074;101036.1;;;;-77
2022/01/31 01:21:55;;;;;;;;;;;;;;;4.63;86.67773;101038;;;;-77
2022/01/31 01:26:57;;;;;;;;;;;;;;;4.69;86.86523;101023.5;;;;-78
2022/01/31 01:31:55;;;;;;;;;;;;;;;4.78;87.1123;100997.3;;;;-77
2022/01/31 01:36:56;;;;;;;;;;;;;;;4.86;87.20508;100975.1;;;;-77
2022/01/31 01:41:55;;;;;;;;;;;;;;;4.94;87.37207;100965.5;;;;-76
2022/01/31 01:46:55;;;;;;;;;;;;;;;4.99;87.17578;100945.4;;;;-76
2022/01/31 01:51:56;;;;;;;;;;;;;;;5.04;87.17676;100937.1;;;;-76
2022/01/31 01:56:55;;;;;;;;;;;;;;;5.09;86.8457;100921.9;;;;-77
2022/01/31 02:01:55;;;;;;;;;;;;;;;5.13;86.95313;100923;;;;-76
2022/01/31 02:06:57;;;;;;;;;;;;;;;5.17;86.875;100908.8;;;;-76
2022/01/31 02:11:57;;;;;;;;;;;;;;;5.21;86.82813;100897.5;;;;-77
2022/01/31 02:16:55;;;;;;;;;;;;;;;5.22;86.60254;100889.4;;;;-76
2022/01/31 02:21:57;;;;;;;;;;;;;;;5.25;86.61719;100891.5;;;;-76
2022/01/31 02:26:55;;;;;;;;;;;;;;;5.27;86.47852;100888.8;;;;-75
2022/01/31 02:31:55;;;;;;;;;;;;;;;5.27;86.29492;100880.7;;;;-76
2022/01/31 02:36:55;;;;;;;;;;;;;;;5.3;86.39844;100870.3;;;;-75
2022/01/31 02:41:55;;;;;;;;;;;;;;;5.31;86.32227;100862.7;;;;-75
2022/01/31 02:46:56;;;;;;;;;;;;;;;5.32;86.20801;100857.1;;;;-75
2022/01/31 02:52:01;;;;;;;;;;;;;;;5.33;85.98047;100861.5;;;;-75
2022/01/31 02:56:55;;;;;;;;;;;;;;;5.34;85.83887;100874.2;;;;-76
2022/01/31 03:01:55;;;;;;;;;;;;;;;5.34;85.56543;100852.7;;;;-75
2022/01/31 03:06:55;;;;;;;;;;;;;;;5.33;85.40039;100839.4;;;;-76
2022/01/31 03:11:55;;;;;;;;;;;;;;;5.33;85.22559;100838.4;;;;-76
2022/01/31 03:16:55;;;;;;;;;;;;;;;5.32;85.1709;100840.1;;;;-76
2022/01/31 03:21:55;;;;;;;;;;;;;;;5.33;85.00684;100819.4;;;;-75
2022/01/31 03:26:55;;;;;;;;;;;;;;;5.33;84.83301;100820.3;;;;-75
2022/01/31 03:31:56;;;;;;;;;;;;;;;5.33;84.6709;100799.1;;;;-76
2022/01/31 03:36:55;;;;;;;;;;;;;;;5.33;84.52734;100792.5;;;;-76
2022/01/31 03:41:55;;;;;;;;;;;;;;;5.33;84.47266;100795.8;;;;-76
2022/01/31 03:46:55;;;;;;;;;;;;;;;5.34;84.37598;100796.4;;;;-75
2022/01/31 03:51:55;;;;;;;;;;;;;;;5.34;84.23438;100773.1;;;;-76
2022/01/31 03:56:55;;;;;;;;;;;;;;;5.34;84.22266;100774.3;;;;-76
2022/01/31 04:01:55;;;;;;;;;;;;;;;5.34;84.11523;100783.3;;;;-75
2022/01/31 04:06:55;;;;;;;;;;;;;;;5.34;84.02637;100762.6;;;;-75
2022/01/31 04:11:55;;;;;;;;;;;;;;;5.34;83.91699;100752.2;;;;-77
2022/01/31 04:16:56;;;;;;;;;;;;;;;5.34;83.72266;100744.1;;;;-76
2022/01/31 04:21:55;;;;;;;;;;;;;;;5.35;83.58105;100735.8;;;;-75
2022/01/31 04:27:05;;;;;;;;;;;;;;;5.34;83.5918;100732.5;;;;-75
2022/01/31 04:31:55;;;;;;;;;;;;;;;5.35;83.49316;100788;;;;-75
2022/01/31 04:36:55;;;;;;;;;;;;;;;5.22;83.99414;100746.3;;;;-75
2022/01/31 04:41:55;;;;;;;;;;;;;;;5.13;84.3457;100743.1;;;;-76
2022/01/31 04:46:55;;;;;;;;;;;;;;;5.05;84.88672;100748.6;;;;-76
2022/01/31 04:51:55;;;;;;;;;;;;;;;5;85.05176;100736.7;;;;-76
2022/01/31 04:56:55;;;;;;;;;;;;;;;4.94;85.16113;100705.1;;;;-76
2022/01/31 05:01:57;;;;;;;;;;;;;;;4.93;85.33203;100699.9;;;;-76
2022/01/31 05:06:55;;;;;;;;;;;;;;;4.91;85.4375;100739.4;;;;-77
2022/01/31 05:11:55;;;;;;;;;;;;;;;4.87;85.75684;100733.6;;;;-76
2022/01/31 05:16:55;;;;;;;;;;;;;;;4.84;85.82813;100734.7;;;;-76
2022/01/31 05:21:55;;;;;;;;;;;;;;;4.8;85.98242;100713.8;;;;-77
2022/01/31 05:26:55;;;;;;;;;;;;;;;4.78;86.17383;100725.8;;;;-76
2022/01/31 05:31:56;;;;;;;;;;;;;;;4.79;86.37305;100715.3;;;;-76
2022/01/31 05:36:56;;;;;;;;;;;;;;;4.78;86.46777;100709.1;;;;-76
2022/01/31 05:41:55;;;;;;;;;;;;;;;4.78;86.46973;100695.4;;;;-76
2022/01/31 05:46:55;;;;;;;;;;;;;;;4.78;86.42383;100711.7;;;;-76
2022/01/31 05:52:01;;;;;;;;;;;;;;;4.77;86.38965;100698.4;;;;-76
2022/01/31 05:56:55;;;;;;;;;;;;;;;4.78;86.43457;100687.5;;;;-76
2022/01/31 06:01:57;;;;;;;;;;;;;;;4.78;86.43652;100687.2;;;;-75
2022/01/31 06:06:55;;;;;;;;;;;;;;;4.77;86.3916;100670.7;;;;-76
2022/01/31 06:11:55;;;;;;;;;;;;;;;4.77;86.36914;100660.4;;;;-76
2022/01/31 06:16:55;;;;;;;;;;;;;;;4.75;86.43164;100675.3;;;;-75
2022/01/31 06:21:55;;;;;;;;;;;;;;;4.75;86.44043;100673.8;;;;-76
2022/01/31 06:26:57;;;;;;;;;;;;;;;4.74;86.4834;100686.6;;;;-76
2022/01/31 06:31:55;;;;;;;;;;;;;;;4.74;86.57129;100663.7;;;;-75
2022/01/31 06:36:55;;;;;;;;;;;;;;;4.75;86.5625;100660.7;;;;-76
2022/01/31 06:41:55;;;;;;;;;;;;;;;4.75;86.6709;100677.3;;;;-76
2022/01/31 06:46:55;;;;;;;;;;;;;;;4.76;86.75977;100672.8;;;;-77
2022/01/31 06:51:55;;;;;;;;;;;;;;;4.75;86.71484;100678.7;;;;-77
2022/01/31 06:56:56;;;;;;;;;;;;;;;4.75;86.74512;100678.7;;;;-77
2022/01/31 07:01:55;;;;;;;;;;;;;;;4.76;86.83398;100690.2;;;;-77
2022/01/31 07:06:55;;;;;;;;;;;;;;;4.78;87.07813;100674.1;;;;-77
2022/01/31 07:11:58;;;;;;;;;;;;;;;4.78;87.2207;100697.1;;;;-77
2022/01/31 07:16:55;;;;;;;;;;;;;;;4.79;87.21191;100684.5;;;;-77
2022/01/31 07:21:55;;;;;;;;;;;;;;;4.79;87.27734;100690.6;;;;-77
2022/01/31 07:26:55;;;;;;;;;;;;;;;4.78;87.21875;100664.2;;;;-78
2022/01/31 07:31:55;;;;;;;;;;;;;;;4.78;87.33887;100699.1;;;;-78
2022/01/31 07:36:56;;;;;;;;;;;;;;;4.77;87.45898;100679.8;;;;-78
2022/01/31 07:41:55;;;;;;;;;;;;;;;4.8;87.58398;100691.3;;;;-77
2022/01/31 07:46:55;;;;;;;;;;;;;;;4.81;87.67285;100699.8;;;;-77
2022/01/31 07:51:56;;;;;;;;;;;;;;;4.8;87.7041;100723.3;;;;-77
2022/01/31 07:56:56;;;;;;;;;;;;;;;4.81;87.72754;100721.5;;;;-78
2022/01/31 08:01:56;;;;;;;;;;;;;;;4.81;87.7168;100716.4;;;;-78
2022/01/31 08:06:55;;;;;;;;;;;;;;;4.8;87.5625;100727.5;;;;-77
2022/01/31 08:11:55;;;;;;;;;;;;;;;4.8;87.55176;100748.7;;;;-77
2022/01/31 08:16:55;;;;;;;;;;;;;;;4.8;87.5625;100749.1;;;;-76
2022/01/31 08:21:55;;;;;;;;;;;;;;;4.8;87.64941;100766.8;;;;-77
2022/01/31 08:26:55;;;;;;;;;;;;;;;4.8;87.82422;100766.3;;;;-78
2022/01/31 08:31:57;;;;;;;;;;;;;;;4.8;87.83496;100789.5;;;;-78
2022/01/31 08:36:55;;;;;;;;;;;;;;;4.8;87.9873;100790.1;;;;-76
2022/01/31 08:41:55;;;;;;;;;;;;;;;4.8;87.87891;100792.1;;;;-78
2022/01/31 08:46:55;;;;;;;;;;;;;;;4.8;87.81348;100788.8;;;;-77
2022/01/31 08:51:55;;;;;;;;;;;;;;;4.79;87.74805;100791.7;;;;-77
2022/01/31 08:56:56;;;;;;;;;;;;;;;4.8;87.69336;100800.6;;;;-78
2022/01/31 09:02:05;;;;;;;;;;;;;;;4.79;87.72559;100804.1;;;;-77
2022/01/31 09:06:55;;;;;;;;;;;;;;;4.79;87.77832;100819.9;;;;-77
2022/01/31 09:11:57;;;;;;;;;;;;;;;4.77;87.77539;100845;;;;-76
2022/01/31 09:16:55;;;;;;;;;;;;;;;4.75;87.73828;100852.3;;;;-76
2022/01/31 09:21:55;;;;;;;;;;;;;;;4.74;87.71289;100852.9;;;;-78
2022/01/31 09:26:55;;;;;;;;;;;;;;;4.73;87.7334;100879.4;;;;-77
2022/01/31 09:31:55;;;;;;;;;;;;;;;4.74;87.63867;100866;;;;-77
2022/01/31 09:36:55;;;;;;;;;;;;;;;4.74;87.61719;100909;;;;-78
2022/01/31 09:41:57;;;;;;;;;;;;;;;4.73;87.5918;100882.4;;;;-77
2022/01/31 09:47:19;;;;;;;;;;;;;;;4.73;87.53711;100905.7;;;;-76
2022/01/31 09:51:55;;;;;;;;;;;;;;;4.72;87.55859;100897;;;;-76
2022/01/31 09:56:57;;;;;;;;;;;;;;;4.75;87.5752;100912.7;;;;-77
2022/01/31 10:01:57;;;;;;;;;;;;;;;4.77;87.49219;100919.1;;;;-77
2022/01/31 10:06:56;;;;;;;;;;;;;;;4.79;87.45215;100922.5;;;;-77
2022/01/31 10:12:03;;;;;;;;;;;;;;;4.81;87.3252;100922;;;;-77
2022/01/31 10:16:55;;;;;;;;;;;;;;;4.82;87.36133;100953.1;;;;-78
2022/01/31 10:22:02;;;;;;;;;;;;;;;4.83;87.37207;100985.5;;;;-76
2022/01/31 10:26:55;;;;;;;;;;;;;;;4.83;87.50293;100988.3;;;;-77
2022/01/31 10:32:05;;;;;;;;;;;;;;;4.85;87.62598;101001.1;;;;-77
2022/01/31 10:36:55;;;;;;;;;;;;;;;4.87;87.87109;100985.1;;;;-77
2022/01/31 10:52:05;;;;;;;;;;;;;;;4.93;87.91504;100999.1;;;;-77
2022/01/31 10:56:56;;;;;;;;;;;;;;;4.94;87.93848;101032.9;;;;-77
2022/01/31 11:01:56;;;;;;;;;;;;;;;4.95;88.0625;101025.2;;;;-77
2022/01/31 11:07:01;;;;;;;;;;;;;;;4.97;88.16406;101024.1;;;;-78
2022/01/31 11:11:55;;;;;;;;;;;;;;;4.97;88.25098;101026.3;;;;-79
2022/01/31 11:16:57;;;;;;;;;;;;;;;4.98;88.36035;101030.5;;;;-77
2022/01/31 11:21:59;;;;;;;;;;;;;;;5.01;88.5293;101039.8;;;;-78
2022/01/31 11:26:58;;;;;;;;;;;;;;;5.04;88.62402;101040.2;;;;-78
2022/01/31 11:31:55;;;;;;;;;;;;;;;5.07;88.65332;101057.6;;;;-77
2022/01/31 11:36:55;;;;;;;;;;;;;;;5.1;88.69141;101083.7;;;;-76
2022/01/31 11:41:57;;;;;;;;;;;;;;;5.11;88.7041;101084.4;;;;-76
2022/01/31 11:46:57;;;;;;;;;;;;;;;5.12;88.6084;101091.7;;;;-78
2022/01/31 11:52:08;;;;;;;;;;;;;;;5.13;88.50293;101085.5;;;;-77
2022/01/31 11:56:56;;;;;;;;;;;;;;;5.15;88.39746;101094.8;;;;-78
2022/01/31 12:01:57;;;;;;;;;;;;;;;5.18;88.34668;101113.4;;;;-77
2022/01/31 12:06:56;;;;;;;;;;;;;;;5.17;88.3252;101125.9;;;;-77
2022/01/31 12:12:06;;;;;;;;;;;;;;;5.18;88.13965;101144.7;;;;-77
2022/01/31 12:17:10;;;;;;;;;;;;;;;5.16;87.96387;101144.6;;;;-78
2022/01/31 12:22:05;;;;;;;;;;;;;;;5.15;87.90723;101141;;;;-78
2022/01/31 12:26:59;;;;;;;;;;;;;;;5.14;87.90527;101151.9;;;;-78
2022/01/31 12:31:57;;;;;;;;;;;;;;;5.15;87.9707;101171.7;;;;-78
2022/01/31 12:36:56;;;;;;;;;;;;;;;5.15;87.95996;101167;;;;-78
2022/01/31 12:42:01;;;;;;;;;;;;;;;5.15;87.92676;101181;;;;-78
2022/01/31 12:46:56;;;;;;;;;;;;;;;5.14;87.99023;101178.8;;;;-77
2022/01/31 12:52:06;;;;;;;;;;;;;;;5.17;87.87793;101184.6;;;;-78
2022/01/31 12:56:57;;;;;;;;;;;;;;;5.17;87.71387;101193.2;;;;-77
2022/01/31 13:01:58;;;;;;;;;;;;;;;5.18;87.63965;101210.8;;;;-77
2022/01/31 13:06:57;;;;;;;;;;;;;;;5.19;87.54395;101196.7;;;;-78
2022/01/31 13:11:57;;;;;;;;;;;;;;;5.2;87.40332;101222.6;;;;-77
2022/01/31 13:17:08;;;;;;;;;;;;;;;5.19;87.28223;101239.1;;;;-77
2022/01/31 13:21:56;;;;;;;;;;;;;;;5.18;87.06055;101218.5;;;;-78
2022/01/31 13:26:56;;;;;;;;;;;;;;;5.17;87.06055;101252.2;;;;-77
2022/01/31 13:31:55;;;;;;;;;;;;;;;5.18;87.02734;101265.8;;;;-77
2022/01/31 13:36:55;;;;;;;;;;;;;;;5.19;86.96582;101259.2;;;;-76
2022/01/31 13:41:55;;;;;;;;;;;;;;;5.21;86.90625;101250.9;;;;-77
2022/01/31 13:46:59;;;;;;;;;;;;;;;5.24;86.83496;101258.7;;;;-77
2022/01/31 13:51:55;;;;;;;;;;;;;;;5.24;86.57129;101290.2;;;;-77
2022/01/31 13:56:56;;;;;;;;;;;;;;;5.25;86.57324;101286.4;;;;-76
2022/01/31 14:02:05;;;;;;;;;;;;;;;5.24;86.39648;101293.9;;;;-77
2022/01/31 14:06:55;;;;;;;;;;;;;;;5.23;86.37305;101320.8;;;;-77
2022/01/31 14:11:55;;;;;;;;;;;;;;;5.23;86.34082;101336.7;;;;-77
2022/01/31 14:16:55;;;;;;;;;;;;;;;5.23;86.3291;101336.3;;;;-77
2022/01/31 14:21:58;;;;;;;;;;;;;;;5.23;86.39551;101363.3;;;;-77
2022/01/31 14:27:02;;;;;;;;;;;;;;;5.21;86.38086;101371;;;;-78
2022/01/31 14:31:56;;;;;;;;;;;;;;;5.2;86.3457;101400.2;;;;-78
2022/01/31 14:36:56;;;;;;;;;;;;;;;5.18;86.28613;101404.7;;;;-78
2022/01/31 14:42:07;;;;;;;;;;;;;;;5.16;86.18359;101404.1;;;;-77
2022/01/31 14:51:55;;;;;;;;;;;;;;;5.14;86.16992;101436;;;;-77
2022/01/31 14:56:55;;;;;;;;;;;;;;;5.14;86.10449;101454.3;;;;-77
2022/01/31 15:01:55;;;;;;;;;;;;;;;5.13;85.83203;101479.7;;;;-78
2022/01/31 15:06:56;;;;;;;;;;;;;;;5.13;85.64453;101488.6;;;;-77
2022/01/31 15:11:55;;;;;;;;;;;;;;;5.11;85.68652;101502.9;;;;-77
2022/01/31 15:16:55;;;;;;;;;;;;;;;5.12;85.60938;101505.3;;;;-77
2022/01/31 15:21:56;;;;;;;;;;;;;;;5.11;85.78418;101536.8;;;;-78
2022/01/31 15:26:55;;;;;;;;;;;;;;;5.11;85.81738;101556.6;;;;-78
2022/01/31 15:31:55;;;;;;;;;;;;;;;5.11;85.84766;101560.8;;;;-77
2022/01/31 15:36:58;;;;;;;;;;;;;;;5.12;85.80762;101571.3;;;;-77
2022/01/31 15:42:00;;;;;;;;;;;;;;;5.12;85.83008;101589.8;;;;-77
2022/01/31 15:46:57;;;;;;;;;;;;;;;5.12;85.88281;101600;;;;-77
2022/01/31 15:51:55;;;;;;;;;;;;;;;5.11;85.79297;101624.1;;;;-77
2022/01/31 15:56:55;;;;;;;;;;;;;;;5.09;85.56055;101634.3;;;;-76
2022/01/31 16:01:56;;;;;;;;;;;;;;;5.06;85.17383;101644.5;;;;-77
2022/01/31 16:06:55;;;;;;;;;;;;;;;5.04;85.11328;101644.5;;;;-78
2022/01/31 16:11:55;;;;;;;;;;;;;;;5.02;85.02246;101681.5;;;;-77
2022/01/31 16:16:56;;;;;;;;;;;;;;;5;84.96484;101670.3;;;;-77
2022/01/31 16:21:55;;;;;;;;;;;;;;;4.99;84.87598;101695.1;;;;-77
2022/01/31 16:26:55;;;;;;;;;;;;;;;4.96;84.77246;101707.1;;;;-77
2022/01/31 16:31:56;;;;;;;;;;;;;;;4.93;84.71191;101711.3;;;;-78
2022/01/31 16:37:00;;;;;;;;;;;;;;;4.89;84.68164;101727.8;;;;-78
2022/01/31 16:41:56;;;;;;;;;;;;;;;4.82;84.35254;101731.1;;;;-77
2022/01/31 16:46:55;;;;;;;;;;;;;;;4.81;84.61133;101755.6;;;;-78
2022/01/31 17:13:20;;;;;;;;;;;;;;;4.72;83.91895;101805.9;;;;-77
2022/01/31 17:18:20;;;;;;;;;;;;;;;4.73;83.94043;101813.8;;;;-78
2022/01/31 17:23:20;;;;;;;;;;;;;;;4.69;83.5957;101822.7;;;;-78
2022/01/31 17:28:20;;;;;;;;;;;;;;;4.69;83.57422;101852.2;;;;-78
2022/01/31 17:33:21;;;;;;;;;;;;;;;4.67;83.24316;101847.6;;;;-79
2022/01/31 17:38:21;;;;;;;;;;;;;;;4.66;83.08691;101852.7;;;;-77
2022/01/31 17:43:23;;;;;;;;;;;;;;;4.64;82.75684;101895.1;;;;-78
2022/01/31 17:48:20;;;;;;;;;;;;;;;4.59;82.43164;101907.7;;;;-79
2022/01/31 17:53:20;;;;;;;;;;;;;;;4.57;82.76563;101903;;;;-78
2022/01/31 17:58:20;;;;;;;;;;;;;;;4.57;82.62305;101917;;;;-78
2022/01/31 18:03:20;;;;;;;;;;;;;;;4.54;82.7168;101937.3;;;;-77
2022/01/31 18:08:21;;;;;;;;;;;;;;;4.52;82.54883;101945.5;;;;-76
2022/01/31 18:13:20;;;;;;;;;;;;;;;4.49;82.11816;101961.8;;;;-77
2022/01/31 18:18:22;;;;;;;;;;;;;;;4.47;82.01465;101978.8;;;;-78
2022/01/31 18:23:20;;;;;;;;;;;;;;;4.43;81.57129;101990.4;;;;-79
2022/01/31 18:28:21;;;;;;;;;;;;;;;4.44;81.66113;101967.7;;;;-78
2022/01/31 18:33:22;;;;;;;;;;;;;;;4.41;81.28516;101983;;;;-78
2022/01/31 18:38:20;;;;;;;;;;;;;;;4.32;81.04004;102011.1;;;;-78
2022/01/31 18:43:20;;;;;;;;;;;;;;;4.26;81.0498;102014.5;;;;-81
2022/01/31 18:48:24;;;;;;;;;;;;;;;4.18;80.9043;102027.7;;;;-78
2022/01/31 18:53:20;;;;;;;;;;;;;;;4.09;80.99609;102026.8;;;;-78
2022/01/31 18:58:20;;;;;;;;;;;;;;;4.03;81.11426;102041;;;;-79
2022/01/31 19:03:21;;;;;;;;;;;;;;;3.97;81.15918;102050.9;;;;-79
2022/01/31 19:08:22;;;;;;;;;;;;;;;3.91;81.31055;102069.8;;;;-79
2022/01/31 19:13:25;;;;;;;;;;;;;;;3.96;81.57129;102071.6;;;;-80
2022/01/31 19:18:21;;;;;;;;;;;;;;;3.92;81.92383;102066.9;;;;-80
2022/01/31 19:23:20;;;;;;;;;;;;;;;3.99;81.89258;102094.9;;;;-78
2022/01/31 19:28:21;;;;;;;;;;;;;;;3.97;82.07422;102093.6;;;;-78
2022/01/31 19:33:20;;;;;;;;;;;;;;;3.91;81.97461;102103.4;;;;-79
2022/01/31 19:38:22;;;;;;;;;;;;;;;3.78;81.80859;102104;;;;-79
2022/01/31 19:43:25;;;;;;;;;;;;;;;3.7;82.01074;102123.4;;;;-79
2022/01/31 19:48:20;;;;;;;;;;;;;;;3.72;82.60156;102137.5;;;;-79
2022/01/31 19:53:20;;;;;;;;;;;;;;;3.79;82.55273;102130.2;;;;-78
2022/01/31 19:58:20;;;;;;;;;;;;;;;3.82;82.45996;102147;;;;-78
2022/01/31 20:03:20;;;;;;;;;;;;;;;3.84;82.4834;102147.2;;;;-80
2022/01/31 20:08:20;;;;;;;;;;;;;;;3.82;82.50293;102149.5;;;;-78
2022/01/31 20:13:21;;;;;;;;;;;;;;;3.76;82.59766;102142.3;;;;-78
2022/01/31 20:18:21;;;;;;;;;;;;;;;3.7;82.6875;102153.1;;;;-78
2022/01/31 20:23:21;;;;;;;;;;;;;;;3.68;82.78027;102180.7;;;;-77
2022/01/31 20:28:22;;;;;;;;;;;;;;;3.65;82.90332;102195.6;;;;-78
2022/01/31 20:33:20;;;;;;;;;;;;;;;3.63;83.03027;102192.3;;;;-77
2022/01/31 20:38:27;;;;;;;;;;;;;;;3.6;82.9834;102186.3;;;;-79
2022/01/31 20:43:20;;;;;;;;;;;;;;;3.53;83.24121;102180.4;;;;-79
2022/01/31 20:48:20;;;;;;;;;;;;;;;3.5;83.23633;102158.4;;;;-78
2022/01/31 20:53:21;;;;;;;;;;;;;;;3.47;83.26172;102183.5;;;;-78
2022/01/31 20:58:20;;;;;;;;;;;;;;;3.41;83.29492;102191.3;;;;-79
2022/01/31 21:03:22;;;;;;;;;;;;;;;3.38;83.3418;102182;;;;-79
2022/01/31 21:08:24;;;;;;;;;;;;;;;3.35;83.47852;102191.8;;;;-79
2022/01/31 21:13:20;;;;;;;;;;;;;;;3.31;83.38379;102204.7;;;;-79
2022/01/31 21:18:20;;;;;;;;;;;;;;;3.24;83.37012;102201.1;;;;-78
2022/01/31 21:23:20;;;;;;;;;;;;;;;3.2;83.63477;102212.1;;;;-79
2022/01/31 21:28:20;;;;;;;;;;;;;;;3.15;83.62402;102206.2;;;;-80
2022/01/31 21:33:25;;;;;;;;;;;;;;;3.11;83.91895;102220.5;;;;-76
2022/01/31 21:38:20;;;;;;;;;;;;;;;2.97;84.08984;102241.2;;;;-78
2022/01/31 21:43:20;;;;;;;;;;;;;;;3.03;84.02441;102235.4;;;;-78
2022/01/31 21:48:20;;;;;;;;;;;;;;;2.87;84.03418;102228.9;;;;-77
2022/01/31 21:53:20;;;;;;;;;;;;;;;2.8;84.37109;102229.5;;;;-77
2022/01/31 21:58:20;;;;;;;;;;;;;;;2.76;84.61133;102209.6;;;;-77
2022/01/31 22:03:20;;;;;;;;;;;;;;;2.72;84.75586;102199.5;;;;-78
2022/01/31 22:08:23;;;;;;;;;;;;;;;2.71;84.77441;102199.2;;;;-78
2022/01/31 22:13:20;;;;;;;;;;;;;;;2.68;84.84473;102192;;;;-77
2022/01/31 22:18:20;;;;;;;;;;;;;;;2.66;84.84082;102194.6;;;;-78
2022/01/31 22:23:20;;;;;;;;;;;;;;;2.65;84.91309;102174.9;;;;-78
2022/01/31 22:28:20;;;;;;;;;;;;;;;2.63;85.02051;102163.1;;;;-78
2022/01/31 22:33:25;;;;;;;;;;;;;;;2.62;85.0293;102141.1;;;;-77
2022/01/31 22:38:20;;;;;;;;;;;;;;;2.6;85.1123;102172.4;;;;-75
2022/01/31 22:43:20;;;;;;;;;;;;;;;2.59;85.21582;102199;;;;-77
2022/01/31 22:48:21;;;;;;;;;;;;;;;2.57;85.25879;102189.1;;;;-77
2022/01/31 22:53:20;;;;;;;;;;;;;;;2.55;85.31836;102198;;;;-77
2022/01/31 22:58:20;;;;;;;;;;;;;;;2.53;85.3252;102196.8;;;;-77
2022/01/31 23:03:20;;;;;;;;;;;;;;;2.49;85.33789;102198.6;;;;-77
2022/01/31 23:08:21;;;;;;;;;;;;;;;2.46;85.40918;102204.3;;;;-78
2022/01/31 23:13:22;;;;;;;;;;;;;;;2.43;85.38184;102204.1;;;;-76
2022/01/31 23:18:30;;;;;;;;;;;;;;;2.38;85.41406;102204.9;;;;-77
2022/01/31 23:53:26;;;;;;;;;;;;;;;2.33;85.48145;102198;;;;-79
